Time;durP1;ratioP1;P1;durP2;ratioP2;P2;SDS_P1;SDS_P2;PMS_P1;PMS_P2;Temp;Humidity;BMP_temperature;BMP_pressure;BME280_temperature;BME280_humidity;BME280_pressure;Samples;Min_cycle;Max_cycle;Signal;HPM_P1;HPM_P2
2022/11/01 00:01:49;;;;;;;;;;;13.10;99.90;;;;;;5071894;28;20023;-66
2022/11/01 00:04:15;;;;;;;;;;;13.10;99.90;;;;;;5072253;28;20345;-67
2022/11/01 00:06:40;;;;;;;;;;;13.10;99.90;;;;;;5071278;28;19928;-67
2022/11/01 00:09:06;;;;;;;;;;;13.10;99.90;;;;;;5070989;28;20379;-66
2022/11/01 00:11:31;;;;;;;;;;;13.10;99.90;;;;;;5071917;28;19934;-67
2022/11/01 00:13:57;;;;;;;;;;;13.10;99.90;;;;;;5072191;28;19925;-66
2022/11/01 00:16:23;;;;;;;;;;;13.10;99.90;;;;;;5071177;28;19925;-67
2022/11/01 00:18:49;;;;;;;;;;;13.10;99.90;;;;;;5087702;28;19932;-67
2022/11/01 00:21:15;;;;;;;;;;;13.10;99.90;;;;;;5071716;28;20414;-67
2022/11/01 00:23:40;;;;;;;;;;;13.10;99.90;;;;;;5072144;28;19925;-66
2022/11/01 00:26:06;;;;;;;;;;;13.10;99.90;;;;;;5087532;28;19920;-68
2022/11/01 00:28:32;;;;;;;;;;;13.10;99.90;;;;;;5071077;28;19928;-66
2022/11/01 00:30:58;;;;;;;;;;;13.10;99.90;;;;;;5071634;28;20323;-67
2022/11/01 00:33:24;;;;;;;;;;;13.10;99.90;;;;;;5070672;28;19931;-66
2022/11/01 00:35:49;;;;;;;;;;;13.10;99.90;;;;;;5071456;28;19924;-68
2022/11/01 00:38:15;;;;;;;;;;;13.10;99.90;;;;;;5071096;28;19924;-67
2022/11/01 00:40:42;;;;;;;;;;;13.10;99.90;;;;;;5104959;28;20016;-67
2022/11/01 00:43:08;;;;;;;;;;;13.00;99.90;;;;;;5087108;28;19928;-66
2022/11/01 00:45:33;;;;;;;;;;;13.00;99.90;;;;;;5071903;28;19924;-68
2022/11/01 00:47:59;;;;;;;;;;;13.00;99.90;;;;;;5070552;28;19925;-66
2022/11/01 00:50:24;;;;;;;;;;;13.00;99.90;;;;;;5071912;28;19924;-66
2022/11/01 00:52:50;;;;;;;;;;;13.10;99.90;;;;;;5104282;28;19924;-68
2022/11/01 00:55:16;;;;;;;;;;;13.10;99.90;;;;;;5071340;28;19932;-67
2022/11/01 00:57:44;;;;;;;;;;;13.10;99.90;;;;;;5104304;28;20344;-67
2022/11/01 01:00:11;;;;;;;;;;;13.10;99.90;;;;;;5104318;28;20291;-66
2022/11/01 01:02:37;;;;;;;;;;;13.10;99.90;;;;;;5070561;28;19931;-67
2022/11/01 01:05:02;;;;;;;;;;;13.10;99.90;;;;;;5107626;28;19925;-66
2022/11/01 01:07:28;;;;;;;;;;;13.10;99.90;;;;;;5108294;28;20019;-67
2022/11/01 01:09:53;;;;;;;;;;;13.10;99.90;;;;;;5074420;28;19931;-68
2022/11/01 01:12:19;;;;;;;;;;;13.10;99.90;;;;;;5108036;28;20405;-67
2022/11/01 01:14:44;;;;;;;;;;;13.10;99.90;;;;;;5107910;28;20326;-67
2022/11/01 01:17:10;;;;;;;;;;;13.10;99.90;;;;;;5090433;28;19925;-66
2022/11/01 01:19:36;;;;;;;;;;;13.10;99.90;;;;;;5107843;28;19983;-67
2022/11/01 01:22:01;;;;;;;;;;;13.10;99.90;;;;;;5074671;28;19929;-66
2022/11/01 01:24:27;;;;;;;;;;;13.10;99.90;;;;;;5108015;28;19978;-67
2022/11/01 01:26:53;;;;;;;;;;;13.10;99.90;;;;;;5107973;28;20271;-67
2022/11/01 01:29:18;;;;;;;;;;;13.10;99.90;;;;;;5074863;28;20318;-66
2022/11/01 01:31:44;;;;;;;;;;;13.10;99.90;;;;;;5073803;28;19924;-66
2022/11/01 01:34:09;;;;;;;;;;;13.20;99.90;;;;;;5074520;28;20375;-67
2022/11/01 01:36:35;;;;;;;;;;;13.20;99.90;;;;;;5073948;28;19931;-66
2022/11/01 01:39:01;;;;;;;;;;;13.20;99.90;;;;;;5073683;28;19978;-67
2022/11/01 01:44:29;;;;;;;;;;;13.20;99.90;;;;;;5073427;28;19940;-65
2022/11/01 01:46:54;;;;;;;;;;;13.30;99.90;;;;;;5073728;28;19975;-66
2022/11/01 01:49:20;;;;;;;;;;;13.30;99.90;;;;;;5074378;28;19967;-67
2022/11/01 01:51:46;;;;;;;;;;;13.30;99.90;;;;;;5107520;28;19925;-66
2022/11/01 01:54:11;;;;;;;;;;;13.20;99.90;;;;;;5072793;28;19994;-66
2022/11/01 01:56:37;;;;;;;;;;;13.20;99.90;;;;;;5107345;28;19924;-66
2022/11/01 01:59:04;;;;;;;;;;;13.30;99.90;;;;;;5073354;28;20018;-70
2022/11/01 02:01:30;;;;;;;;;;;13.30;99.90;;;;;;5107211;28;19924;-67
2022/11/01 02:03:56;;;;;;;;;;;13.20;99.90;;;;;;5074520;28;20015;-67
2022/11/01 02:06:22;;;;;;;;;;;13.20;99.90;;;;;;5072928;28;19967;-66
2022/11/01 02:08:50;;;;;;;;;;;13.30;99.90;;;;;;5074495;28;19925;-66
2022/11/01 02:11:16;;;;;;;;;;;13.30;99.90;;;;;;5073122;28;20024;-67
2022/11/01 02:13:42;;;;;;;;;;;13.30;99.90;;;;;;5073850;28;20415;-66
2022/11/01 02:16:28;;;;;;;;;;;13.30;99.90;;;;;;5089783;28;19967;-67
2022/11/01 02:18:53;;;;;;;;;;;13.20;99.90;;;;;;5072992;28;19925;-67
2022/11/01 02:21:38;;;;;;;;;;;13.20;99.90;;;;;;5089407;28;19925;-67
2022/11/01 02:24:07;;;;;;;;;;;13.30;99.90;;;;;;5072527;28;19928;-68
2022/11/01 02:26:44;;;;;;;;;;;13.30;99.90;;;;;;5089006;28;20368;-67
2022/11/01 02:29:33;;;;;;;;;;;13.20;99.90;;;;;;5106581;28;20023;-67
2022/11/01 02:32:06;;;;;;;;;;;13.30;99.90;;;;;;5073505;28;19925;-66
2022/11/01 02:34:44;;;;;;;;;;;13.30;99.90;;;;;;5072319;28;19929;-68
2022/11/01 02:37:13;;;;;;;;;;;13.20;99.90;;;;;;5089119;28;20295;-69
2022/11/01 02:39:42;;;;;;;;;;;13.20;99.90;;;;;;5073778;28;19985;-67
2022/11/01 02:42:46;;;;;;;;;;;13.30;99.90;;;;;;5073465;28;19931;-67
2022/11/01 02:45:27;;;;;;;;;;;13.20;99.90;;;;;;5070453;28;20406;-67
2022/11/01 02:48:00;;;;;;;;;;;13.30;99.90;;;;;;5070573;28;19925;-67
2022/11/01 02:50:27;;;;;;;;;;;13.30;99.90;;;;;;5063835;28;19932;-67
2022/11/01 02:52:53;;;;;;;;;;;13.30;99.90;;;;;;5073611;28;19975;-67
2022/11/01 02:55:29;;;;;;;;;;;13.30;99.90;;;;;;5072949;28;19924;-67
2022/11/01 02:57:55;;;;;;;;;;;13.30;99.90;;;;;;5106314;28;19924;-67
2022/11/01 03:00:23;;;;;;;;;;;13.30;99.90;;;;;;5073109;28;19928;-67
2022/11/01 03:02:51;;;;;;;;;;;13.30;99.90;;;;;;5106012;28;19924;-66
2022/11/01 03:05:35;;;;;;;;;;;13.40;99.90;;;;;;5071616;28;19974;-67
2022/11/01 03:08:03;;;;;;;;;;;13.40;99.90;;;;;;5105966;28;19979;-67
2022/11/01 03:10:44;;;;;;;;;;;13.40;99.90;;;;;;5105430;28;19977;-67
2022/11/01 03:13:10;;;;;;;;;;;13.40;99.90;;;;;;5088808;28;19974;-67
2022/11/01 03:15:39;;;;;;;;;;;13.50;99.90;;;;;;5071618;28;20167;-67
2022/11/01 03:18:10;;;;;;;;;;;13.50;99.90;;;;;;5071771;28;19929;-67
2022/11/01 03:20:48;;;;;;;;;;;13.50;99.90;;;;;;5071154;28;19920;-66
2022/11/01 03:23:15;;;;;;;;;;;13.50;99.90;;;;;;5070930;28;20395;-66
2022/11/01 03:25:44;;;;;;;;;;;13.60;99.90;;;;;;5104628;28;19943;-65
2022/11/01 03:28:16;;;;;;;;;;;13.60;99.90;;;;;;5072295;28;20046;-67
2022/11/01 03:30:46;;;;;;;;;;;13.60;99.90;;;;;;5071250;28;19928;-67
2022/11/01 03:33:13;;;;;;;;;;;13.60;99.90;;;;;;5071228;28;19990;-67
2022/11/01 03:35:40;;;;;;;;;;;13.60;99.90;;;;;;5072180;28;19920;-67
2022/11/01 03:38:08;;;;;;;;;;;13.60;99.90;;;;;;5072274;28;19983;-69
2022/11/01 03:40:35;;;;;;;;;;;13.60;99.90;;;;;;5104654;28;19925;-67
2022/11/01 03:43:01;;;;;;;;;;;13.70;99.90;;;;;;5104883;28;19924;-68
2022/11/01 03:45:29;;;;;;;;;;;13.70;99.90;;;;;;5087803;28;20411;-67
2022/11/01 03:47:55;;;;;;;;;;;13.70;99.90;;;;;;5070478;28;19936;-67
2022/11/01 03:50:22;;;;;;;;;;;13.80;99.90;;;;;;5104320;28;19925;-69
2022/11/01 03:52:47;;;;;;;;;;;13.80;99.90;;;;;;5105209;28;19990;-66
2022/11/01 03:55:16;;;;;;;;;;;13.90;99.90;;;;;;5071943;28;19971;-67
2022/11/01 03:57:46;;;;;;;;;;;14.00;99.90;;;;;;5070913;28;19920;-67
2022/11/01 04:00:16;;;;;;;;;;;14.00;99.90;;;;;;5071429;28;19928;-67
2022/11/01 04:02:42;;;;;;;;;;;14.10;99.90;;;;;;5070515;28;19951;-66
2022/11/01 04:05:08;;;;;;;;;;;14.10;99.90;;;;;;5071344;28;19931;-67
2022/11/01 04:07:34;;;;;;;;;;;14.20;99.90;;;;;;5070622;28;19939;-68
2022/11/01 04:09:59;;;;;;;;;;;14.30;99.90;;;;;;5070812;28;19925;-67
2022/11/01 04:12:25;;;;;;;;;;;14.30;99.90;;;;;;5104271;28;19924;-69
2022/11/01 04:20:32;;;;;;;;;;;14.30;99.90;;;;;;5071207;28;20034;-67
2022/11/01 04:23:00;;;;;;;;;;;14.30;99.90;;;;;;5104664;28;19925;-67
2022/11/01 04:25:26;;;;;;;;;;;14.30;99.90;;;;;;5087236;28;20019;-69
2022/11/01 04:27:52;;;;;;;;;;;14.30;99.90;;;;;;5087705;28;20383;-68
2022/11/01 04:30:17;;;;;;;;;;;14.30;99.90;;;;;;5072070;28;19924;-67
2022/11/01 04:32:43;;;;;;;;;;;14.40;99.90;;;;;;5070694;28;20325;-67
2022/11/01 04:35:12;;;;;;;;;;;14.40;99.90;;;;;;5071103;28;20022;-67
2022/11/01 04:37:38;;;;;;;;;;;14.40;99.90;;;;;;5088386;28;19932;-67
2022/11/01 04:40:06;;;;;;;;;;;14.50;99.90;;;;;;5074966;28;19929;-66
2022/11/01 04:42:35;;;;;;;;;;;14.50;99.90;;;;;;5091186;28;19936;-67
2022/11/01 04:45:02;;;;;;;;;;;14.50;99.90;;;;;;5076173;28;20341;-66
2022/11/01 04:47:27;;;;;;;;;;;14.50;99.90;;;;;;5075931;28;19928;-67
2022/11/01 04:49:53;;;;;;;;;;;14.50;99.90;;;;;;5074228;28;20062;-67
2022/11/01 04:52:20;;;;;;;;;;;14.50;99.90;;;;;;5090430;28;20140;-67
2022/11/01 04:54:46;;;;;;;;;;;14.60;99.90;;;;;;5073986;28;20352;-67
2022/11/01 04:57:24;;;;;;;;;;;14.60;99.90;;;;;;5108647;28;19928;-67
2022/11/01 04:59:54;;;;;;;;;;;14.60;99.90;;;;;;5072796;28;19924;-68
2022/11/01 05:02:20;;;;;;;;;;;14.60;99.90;;;;;;5091311;28;19924;-67
2022/11/01 05:04:45;;;;;;;;;;;14.60;99.90;;;;;;5075083;28;20278;-67
2022/11/01 05:07:11;;;;;;;;;;;14.70;99.90;;;;;;5075489;28;19928;-67
2022/11/01 05:09:37;;;;;;;;;;;14.70;99.90;;;;;;5108038;28;20378;-67
2022/11/01 05:12:02;;;;;;;;;;;14.70;99.90;;;;;;5074381;28;20019;-68
2022/11/01 05:14:28;;;;;;;;;;;14.80;99.90;;;;;;5074288;28;19951;-67
2022/11/01 05:16:54;;;;;;;;;;;14.80;99.90;;;;;;5074983;28;19924;-67
2022/11/01 05:19:19;;;;;;;;;;;14.80;99.90;;;;;;5107991;28;19928;-66
2022/11/01 05:21:45;;;;;;;;;;;14.80;99.90;;;;;;5090547;28;19924;-67
2022/11/01 05:24:10;;;;;;;;;;;14.80;99.90;;;;;;5074042;28;19928;-67
2022/11/01 05:26:36;;;;;;;;;;;14.80;99.90;;;;;;5074780;28;19964;-70
2022/11/01 05:29:02;;;;;;;;;;;14.80;99.90;;;;;;5107929;28;19924;-66
2022/11/01 05:31:27;;;;;;;;;;;14.80;99.90;;;;;;5075046;28;19925;-67
2022/11/01 05:33:53;;;;;;;;;;;14.80;99.90;;;;;;5090330;28;19925;-67
2022/11/01 05:36:18;;;;;;;;;;;14.80;99.90;;;;;;5107575;28;19931;-68
2022/11/01 05:38:44;;;;;;;;;;;14.80;99.90;;;;;;5073682;28;19986;-68
2022/11/01 05:41:09;;;;;;;;;;;14.80;99.90;;;;;;5107617;28;19924;-67
2022/11/01 05:43:35;;;;;;;;;;;14.90;99.90;;;;;;5090318;28;20295;-67
2022/11/01 05:46:04;;;;;;;;;;;14.90;99.90;;;;;;5074606;28;19943;-68
2022/11/01 05:48:29;;;;;;;;;;;15.00;99.90;;;;;;5107326;28;19928;-68
2022/11/01 05:50:55;;;;;;;;;;;15.00;99.90;;;;;;5089759;28;19970;-68
2022/11/01 05:53:21;;;;;;;;;;;15.00;99.90;;;;;;5074415;28;19928;-67
2022/11/01 05:55:46;;;;;;;;;;;15.00;99.90;;;;;;5072325;28;19932;-68
2022/11/01 05:58:12;;;;;;;;;;;15.00;99.90;;;;;;5107071;28;20318;-66
2022/11/01 06:00:37;;;;;;;;;;;15.00;99.90;;;;;;5073156;28;19925;-67
2022/11/01 06:03:03;;;;;;;;;;;15.00;99.90;;;;;;5072557;28;19951;-67
2022/11/01 06:05:29;;;;;;;;;;;15.00;99.90;;;;;;5090117;28;20015;-67
2022/11/01 06:07:55;;;;;;;;;;;15.00;99.90;;;;;;5106671;28;19924;-70
2022/11/01 06:10:20;;;;;;;;;;;15.00;99.90;;;;;;5073063;28;19939;-68
2022/11/01 06:12:46;;;;;;;;;;;14.90;99.90;;;;;;5073451;28;19924;-68
2022/11/01 06:15:12;;;;;;;;;;;14.80;99.90;;;;;;5072720;28;19924;-69
2022/11/01 06:17:37;;;;;;;;;;;14.80;99.90;;;;;;5072745;28;19931;-67
2022/11/01 06:20:03;;;;;;;;;;;14.70;99.90;;;;;;5106690;28;20053;-67
2022/11/01 06:22:29;;;;;;;;;;;14.60;99.90;;;;;;5106780;28;19925;-68
2022/11/01 06:24:54;;;;;;;;;;;14.60;99.90;;;;;;5106202;28;19924;-68
2022/11/01 06:27:20;;;;;;;;;;;14.50;99.90;;;;;;5073868;28;20425;-67
2022/11/01 06:29:46;;;;;;;;;;;14.50;99.90;;;;;;5106255;28;19924;-69
2022/11/01 06:32:12;;;;;;;;;;;14.50;99.90;;;;;;5073971;28;20337;-67
2022/11/01 06:34:37;;;;;;;;;;;14.40;99.90;;;;;;5072579;28;19964;-67
2022/11/01 06:37:03;;;;;;;;;;;14.40;99.90;;;;;;5088783;28;19967;-67
2022/11/01 06:39:28;;;;;;;;;;;14.40;99.90;;;;;;5072297;28;19924;-68
2022/11/01 06:41:54;;;;;;;;;;;14.30;99.90;;;;;;5088654;28;19975;-67
2022/11/01 06:44:20;;;;;;;;;;;14.30;99.90;;;;;;5073311;28;20291;-66
2022/11/01 06:46:45;;;;;;;;;;;14.20;99.90;;;;;;5105951;28;19967;-68
2022/11/01 06:49:11;;;;;;;;;;;14.10;99.90;;;;;;5105433;28;19928;-68
2022/11/01 06:51:36;;;;;;;;;;;14.10;99.90;;;;;;5073130;28;20019;-67
2022/11/01 06:54:02;;;;;;;;;;;14.10;99.90;;;;;;5072992;28;20027;-68
2022/11/01 06:56:27;;;;;;;;;;;14.00;99.90;;;;;;5072864;28;19999;-68
2022/11/01 06:58:53;;;;;;;;;;;14.00;99.90;;;;;;5088602;28;19925;-67
2022/11/01 07:01:20;;;;;;;;;;;14.00;99.90;;;;;;5071149;28;20437;-68
2022/11/01 07:03:50;;;;;;;;;;;14.00;99.90;;;;;;5088459;28;20295;-68
2022/11/01 07:06:16;;;;;;;;;;;14.00;99.90;;;;;;5073039;28;19974;-67
2022/11/01 07:08:42;;;;;;;;;;;14.00;99.90;;;;;;5105951;28;19931;-68
2022/11/01 07:11:08;;;;;;;;;;;14.00;99.90;;;;;;5071580;28;20023;-66
2022/11/01 07:13:35;;;;;;;;;;;14.00;99.90;;;;;;5088638;28;20019;-68
2022/11/01 07:16:02;;;;;;;;;;;13.90;99.90;;;;;;5105261;28;19982;-67
2022/11/01 07:18:29;;;;;;;;;;;13.90;99.90;;;;;;5072815;28;19925;-67
2022/11/01 07:20:55;;;;;;;;;;;13.90;99.90;;;;;;5088579;28;19929;-71
2022/11/01 07:23:21;;;;;;;;;;;13.90;99.90;;;;;;5072730;28;19950;-67
2022/11/01 07:25:50;;;;;;;;;;;13.90;99.90;;;;;;5072760;28;19981;-68
2022/11/01 07:28:16;;;;;;;;;;;13.90;99.90;;;;;;5088212;28;20103;-67
2022/11/01 07:30:41;;;;;;;;;;;13.90;99.90;;;;;;5071437;28;20411;-67
2022/11/01 07:33:07;;;;;;;;;;;14.10;99.90;;;;;;5071972;28;19931;-67
2022/11/01 07:35:33;;;;;;;;;;;14.40;99.90;;;;;;5105473;28;20371;-67
2022/11/01 07:37:59;;;;;;;;;;;14.50;99.90;;;;;;5072262;28;19924;-70
2022/11/01 07:40:28;;;;;;;;;;;14.50;99.90;;;;;;5087954;28;20003;-68
2022/11/01 07:42:56;;;;;;;;;;;14.50;99.90;;;;;;5070780;28;20015;-67
2022/11/01 07:45:23;;;;;;;;;;;14.50;99.90;;;;;;5071802;28;20446;-68
2022/11/01 07:47:48;;;;;;;;;;;14.50;99.90;;;;;;5104631;28;19928;-67
2022/11/01 07:50:14;;;;;;;;;;;14.50;99.90;;;;;;5104223;28;20015;-69
2022/11/01 07:52:39;;;;;;;;;;;14.50;99.90;;;;;;5088168;28;19925;-68
2022/11/01 07:55:05;;;;;;;;;;;14.50;99.90;;;;;;5104102;28;20013;-67
2022/11/01 07:57:35;;;;;;;;;;;14.50;99.90;;;;;;5105113;28;19932;-67
2022/11/01 08:00:01;;;;;;;;;;;14.50;99.90;;;;;;5072159;28;19936;-69
2022/11/01 08:02:26;;;;;;;;;;;14.60;99.90;;;;;;5070775;28;19932;-68
2022/11/01 08:04:53;;;;;;;;;;;15.00;99.90;;;;;;5105071;28;20452;-67
2022/11/01 08:07:18;;;;;;;;;;;14.80;99.90;;;;;;5104747;28;19968;-68
2022/11/01 08:09:44;;;;;;;;;;;14.80;99.90;;;;;;5072328;28;19977;-68
2022/11/01 08:12:10;;;;;;;;;;;14.90;99.90;;;;;;5070551;28;20379;-68
2022/11/01 08:14:35;;;;;;;;;;;14.90;99.90;;;;;;5087633;28;19932;-68
2022/11/01 08:17:01;;;;;;;;;;;14.90;99.90;;;;;;5087684;28;19954;-67
2022/11/01 08:19:26;;;;;;;;;;;14.80;99.90;;;;;;5104363;28;19932;-68
2022/11/01 08:21:52;;;;;;;;;;;14.80;99.90;;;;;;5104335;28;20331;-68
2022/11/01 08:24:17;;;;;;;;;;;14.90;99.90;;;;;;5070036;28;19925;-69
2022/11/01 08:26:43;;;;;;;;;;;15.00;99.90;;;;;;5069700;28;19978;-68
2022/11/01 08:29:09;;;;;;;;;;;15.00;99.90;;;;;;5070082;28;19932;-75
2022/11/01 08:31:38;;;;;;;;;;;14.90;99.90;;;;;;5103514;28;19931;-67
2022/11/01 08:34:03;;;;;;;;;;;14.90;99.90;;;;;;5071460;28;19936;-65
2022/11/01 08:36:29;;;;;;;;;;;14.90;99.90;;;;;;5071457;28;19924;-66
2022/11/01 08:38:56;;;;;;;;;;;14.90;99.90;;;;;;5103422;28;20291;-67
2022/11/01 08:41:22;;;;;;;;;;;14.90;99.90;;;;;;5086422;28;19928;-66
2022/11/01 08:43:48;;;;;;;;;;;14.90;99.90;;;;;;5103678;28;20019;-67
2022/11/01 08:46:13;;;;;;;;;;;14.90;99.90;;;;;;5067693;28;19925;-65
2022/11/01 08:48:39;;;;;;;;;;;14.80;99.90;;;;;;5104359;28;19933;-66
2022/11/01 08:51:04;;;;;;;;;;;14.80;99.90;;;;;;5070857;28;20393;-66
2022/11/01 08:53:30;;;;;;;;;;;14.70;99.90;;;;;;5103907;28;19989;-65
2022/11/01 08:55:56;;;;;;;;;;;14.70;99.90;;;;;;5070412;28;19966;-66
2022/11/01 08:58:21;;;;;;;;;;;14.70;99.90;;;;;;5086360;28;19958;-66
2022/11/01 09:00:47;;;;;;;;;;;14.70;99.90;;;;;;5103035;28;20280;-66
2022/11/01 09:03:13;;;;;;;;;;;14.70;99.90;;;;;;5070817;28;19978;-68
2022/11/01 09:05:39;;;;;;;;;;;14.60;99.90;;;;;;5071453;28;19978;-65
2022/11/01 09:08:05;;;;;;;;;;;14.60;99.90;;;;;;5071211;28;20383;-67
2022/11/01 09:10:31;;;;;;;;;;;14.60;99.90;;;;;;5069589;28;20536;-66
2022/11/01 09:13:00;;;;;;;;;;;14.60;99.90;;;;;;5103628;28;19969;-66
2022/11/01 09:15:26;;;;;;;;;;;14.70;99.90;;;;;;5069502;28;19925;-67
2022/11/01 09:17:51;;;;;;;;;;;14.80;99.90;;;;;;5069899;28;19973;-66
2022/11/01 09:20:17;;;;;;;;;;;14.80;99.90;;;;;;5086357;28;19924;-66
2022/11/01 09:22:43;;;;;;;;;;;15.00;99.90;;;;;;5103946;28;19950;-66
2022/11/01 09:25:09;;;;;;;;;;;15.10;99.90;;;;;;5073291;28;20355;-66
2022/11/01 09:27:34;;;;;;;;;;;15.20;99.90;;;;;;5107551;28;20011;-66
2022/11/01 09:30:00;;;;;;;;;;;15.20;99.90;;;;;;5090257;28;19930;-67
2022/11/01 09:32:26;;;;;;;;;;;15.30;99.90;;;;;;5106466;28;19931;-67
2022/11/01 09:34:52;;;;;;;;;;;15.30;99.90;;;;;;5105001;28;20386;-66
2022/11/01 09:37:17;;;;;;;;;;;15.40;99.90;;;;;;5107095;28;19928;-67
2022/11/01 09:39:43;;;;;;;;;;;15.50;99.90;;;;;;5088004;28;19925;-66
2022/11/01 09:42:19;;;;;;;;;;;15.50;99.90;;;;;;5073381;28;20003;-66
2022/11/01 09:44:46;;;;;;;;;;;15.60;99.90;;;;;;5089026;28;20339;-68
2022/11/01 09:47:15;;;;;;;;;;;15.60;99.90;;;;;;5090041;28;19932;-67
2022/11/01 09:49:42;;;;;;;;;;;15.50;99.90;;;;;;5106645;28;19928;-67
2022/11/01 09:52:14;;;;;;;;;;;15.50;99.90;;;;;;5073103;28;19924;-66
2022/11/01 09:54:40;;;;;;;;;;;15.60;99.90;;;;;;5073432;28;19924;-68
2022/11/01 09:57:25;;;;;;;;;;;15.60;99.90;;;;;;5073377;28;19932;-67
2022/11/01 10:00:03;;;;;;;;;;;15.70;99.90;;;;;;5072793;28;20422;-68
2022/11/01 10:02:29;;;;;;;;;;;15.70;99.90;;;;;;5072733;28;20047;-69
2022/11/01 10:04:54;;;;;;;;;;;15.70;99.90;;;;;;5106405;28;20031;-67
2022/11/01 10:07:36;;;;;;;;;;;15.70;99.90;;;;;;5072322;28;20023;-73
2022/11/01 10:10:04;;;;;;;;;;;15.70;99.90;;;;;;5106886;28;20039;-69
2022/11/01 10:12:48;;;;;;;;;;;15.70;99.90;;;;;;5106354;28;19924;-66
2022/11/01 10:15:31;;;;;;;;;;;15.70;99.90;;;;;;5072998;28;19928;-67
2022/11/01 10:18:00;;;;;;;;;;;15.70;99.90;;;;;;5072596;28;20012;-68
2022/11/01 10:20:31;;;;;;;;;;;15.70;99.90;;;;;;5089323;28;19931;-67
2022/11/01 10:22:57;;;;;;;;;;;15.80;99.90;;;;;;5072785;28;19931;-66
2022/11/01 10:25:25;;;;;;;;;;;15.80;99.90;;;;;;5088181;28;20442;-68
2022/11/01 10:28:08;;;;;;;;;;;16.00;99.90;;;;;;5073651;28;19928;-67
2022/11/01 10:30:36;;;;;;;;;;;16.00;99.90;;;;;;5105962;28;19924;-68
2022/11/01 10:33:20;;;;;;;;;;;15.90;99.90;;;;;;5072022;28;19935;-67
2022/11/01 10:35:50;;;;;;;;;;;15.90;99.90;;;;;;5070648;28;20321;-67
2022/11/01 10:38:31;;;;;;;;;;;16.00;99.90;;;;;;5105699;28;19982;-67
2022/11/01 10:41:12;;;;;;;;;;;16.00;99.90;;;;;;5071968;28;19925;-68
2022/11/01 10:43:41;;;;;;;;;;;16.00;99.90;;;;;;5104207;28;20441;-68
2022/11/01 10:46:09;;;;;;;;;;;15.90;99.90;;;;;;5072627;28;20003;-67
2022/11/01 10:48:37;;;;;;;;;;;15.90;99.90;;;;;;5105674;28;20015;-67
2022/11/01 10:51:04;;;;;;;;;;;15.90;99.90;;;;;;5073405;28;20019;-67
2022/11/01 10:53:32;;;;;;;;;;;15.80;99.90;;;;;;5072783;28;19925;-67
2022/11/01 10:56:02;;;;;;;;;;;15.80;99.90;;;;;;5072820;28;20074;-68
2022/11/01 10:58:27;;;;;;;;;;;15.80;99.90;;;;;;5071802;28;20376;-69
2022/11/01 11:00:53;;;;;;;;;;;15.80;99.90;;;;;;5071999;28;19960;-68
2022/11/01 11:03:21;;;;;;;;;;;15.70;99.90;;;;;;5088621;28;20015;-69
2022/11/01 11:05:47;;;;;;;;;;;15.80;99.90;;;;;;5072436;28;20181;-68
2022/11/01 11:08:15;;;;;;;;;;;15.70;99.90;;;;;;5072988;28;19979;-67
2022/11/01 11:10:41;;;;;;;;;;;15.70;99.90;;;;;;5072516;28;19928;-68
2022/11/01 11:13:07;;;;;;;;;;;15.60;99.90;;;;;;5072919;28;19925;-68
2022/11/01 11:15:41;;;;;;;;;;;15.50;99.90;;;;;;5071511;28;20500;-68
2022/11/01 11:18:25;;;;;;;;;;;15.50;99.90;;;;;;5105650;28;20001;-67
2022/11/01 11:20:52;;;;;;;;;;;15.50;99.90;;;;;;5070586;28;19929;-68
2022/11/01 11:23:20;;;;;;;;;;;15.50;99.90;;;;;;5070995;28;19925;-68
2022/11/01 11:25:46;;;;;;;;;;;15.40;99.90;;;;;;5070571;28;19924;-66
2022/11/01 11:28:20;;;;;;;;;;;15.40;99.90;;;;;;5105494;28;20279;-68
2022/11/01 11:30:46;;;;;;;;;;;15.40;99.90;;;;;;5071231;28;20326;-67
2022/11/01 11:33:15;;;;;;;;;;;15.40;99.90;;;;;;5088141;28;19924;-68
2022/11/01 11:35:43;;;;;;;;;;;15.40;99.90;;;;;;5087256;28;19932;-68
2022/11/01 11:38:13;;;;;;;;;;;15.40;99.90;;;;;;5072272;28;19925;-68
2022/11/01 11:40:39;;;;;;;;;;;15.40;99.90;;;;;;5068641;28;20391;-68
2022/11/01 11:43:24;;;;;;;;;;;15.40;99.90;;;;;;5072225;28;19925;-69
2022/11/01 11:46:08;;;;;;;;;;;15.50;99.90;;;;;;5072025;28;20524;-68
2022/11/01 11:48:44;;;;;;;;;;;15.50;99.90;;;;;;5070505;28;19928;-68
2022/11/01 11:51:10;;;;;;;;;;;15.50;99.90;;;;;;5071294;28;19972;-68
2022/11/01 11:53:36;;;;;;;;;;;15.60;99.90;;;;;;5101541;28;19978;-69
2022/11/01 11:56:05;;;;;;;;;;;15.70;99.90;;;;;;5069572;28;19929;-68
2022/11/01 11:58:36;;;;;;;;;;;15.70;99.90;;;;;;5105145;28;20401;-70
2022/11/01 12:01:05;;;;;;;;;;;15.80;99.90;;;;;;5071050;28;19936;-67
2022/11/01 12:03:36;;;;;;;;;;;15.80;99.90;;;;;;5070648;28;19973;-70
2022/11/01 12:06:06;;;;;;;;;;;15.80;99.90;;;;;;5069197;28;19932;-67
2022/11/01 12:08:37;;;;;;;;;;;15.90;99.90;;;;;;5087810;28;19934;-69
2022/11/01 12:11:03;;;;;;;;;;;15.90;99.90;;;;;;5104713;28;19925;-67
2022/11/01 12:13:34;;;;;;;;;;;15.90;99.90;;;;;;5071977;28;19932;-67
2022/11/01 12:16:13;;;;;;;;;;;15.90;99.90;;;;;;5104492;28;19930;-68
2022/11/01 12:18:46;;;;;;;;;;;15.90;99.90;;;;;;5102003;28;19924;-67
2022/11/01 12:21:19;;;;;;;;;;;16.00;99.90;;;;;;5071654;28;19934;-68
2022/11/01 12:23:47;;;;;;;;;;;16.10;99.90;;;;;;5071686;28;19975;-70
2022/11/01 12:26:15;;;;;;;;;;;16.00;99.90;;;;;;5105018;28;20015;-70
2022/11/01 12:28:43;;;;;;;;;;;16.00;99.90;;;;;;5071464;28;19931;-68
2022/11/01 12:31:18;;;;;;;;;;;16.00;99.90;;;;;;5104579;28;20346;-69
2022/11/01 12:33:53;;;;;;;;;;;16.10;99.90;;;;;;5071288;28;20375;-69
2022/11/01 12:36:23;;;;;;;;;;;16.10;99.90;;;;;;5087808;28;20025;-67
2022/11/01 12:38:52;;;;;;;;;;;16.10;99.90;;;;;;5071195;28;20405;-67
2022/11/01 12:41:17;;;;;;;;;;;16.10;99.90;;;;;;5087578;28;20162;-67
2022/11/01 12:43:49;;;;;;;;;;;16.20;99.90;;;;;;5068433;28;20011;-67
2022/11/01 12:46:20;;;;;;;;;;;16.20;99.90;;;;;;5104458;28;19925;-67
2022/11/01 12:48:49;;;;;;;;;;;16.20;99.90;;;;;;5070623;28;19931;-68
2022/11/01 12:51:29;;;;;;;;;;;16.20;99.90;;;;;;5071621;28;19924;-67
2022/11/01 12:53:58;;;;;;;;;;;16.30;99.90;;;;;;5071306;28;20256;-68
2022/11/01 12:56:24;;;;;;;;;;;16.30;99.90;;;;;;5071499;28;19971;-67
2022/11/01 12:58:51;;;;;;;;;;;16.30;99.90;;;;;;5073087;28;19928;-67
2022/11/01 13:01:17;;;;;;;;;;;16.40;99.90;;;;;;5108446;28;19925;-68
2022/11/01 13:04:06;;;;;;;;;;;16.40;99.90;;;;;;5074841;28;19925;-67
2022/11/01 13:06:31;;;;;;;;;;;16.40;99.90;;;;;;5075447;28;19928;-66
2022/11/01 13:09:13;;;;;;;;;;;16.40;99.90;;;;;;5074209;28;19927;-68
2022/11/01 13:11:42;;;;;;;;;;;16.50;99.90;;;;;;5090679;28;20015;-67
2022/11/01 13:14:31;;;;;;;;;;;16.50;99.90;;;;;;5075220;28;20085;-68
2022/11/01 13:17:07;;;;;;;;;;;16.50;99.90;;;;;;5107896;28;19932;-66
2022/11/01 13:19:38;;;;;;;;;;;16.50;99.90;;;;;;5074414;28;19924;-66
2022/11/01 13:22:14;;;;;;;;;;;16.50;99.90;;;;;;5090929;28;19928;-66
2022/11/01 13:24:42;;;;;;;;;;;16.50;99.90;;;;;;5074842;28;19928;-68
2022/11/01 13:27:08;;;;;;;;;;;16.50;99.90;;;;;;5075025;28;19925;-67
2022/11/01 13:29:37;;;;;;;;;;;16.40;99.90;;;;;;5075226;28;19925;-67
2022/11/01 13:32:05;;;;;;;;;;;16.40;99.90;;;;;;5107357;28;19950;-69
2022/11/01 13:34:50;;;;;;;;;;;16.40;99.90;;;;;;5074764;28;20015;-66
2022/11/01 13:37:15;;;;;;;;;;;16.40;99.90;;;;;;5074642;28;20383;-67
2022/11/01 13:39:44;;;;;;;;;;;16.40;99.90;;;;;;5090197;28;20020;-68
2022/11/01 13:42:15;;;;;;;;;;;16.40;99.90;;;;;;5074556;28;19925;-68
2022/11/01 13:44:49;;;;;;;;;;;16.30;99.90;;;;;;5073780;28;20398;-67
2022/11/01 13:47:35;;;;;;;;;;;16.70;99.90;;;;;;5107783;28;19924;-68
2022/11/01 13:50:19;;;;;;;;;;;16.30;99.90;;;;;;5074078;28;20495;-69
2022/11/01 13:52:47;;;;;;;;;;;16.30;99.90;;;;;;5073326;28;20286;-68
2022/11/01 13:55:35;;;;;;;;;;;16.30;99.90;;;;;;5074487;28;19931;-67
2022/11/01 13:58:02;;;;;;;;;;;16.20;99.90;;;;;;5074369;28;19931;-68
2022/11/01 14:00:39;;;;;;;;;;;16.20;99.90;;;;;;5107311;28;20406;-67
2022/11/01 14:03:21;;;;;;;;;;;16.20;99.90;;;;;;5072884;28;20019;-67
2022/11/01 14:06:08;;;;;;;;;;;16.20;99.90;;;;;;5073786;28;20290;-68
2022/11/01 14:08:37;;;;;;;;;;;16.20;99.90;;;;;;5090056;28;19964;-67
2022/11/01 14:11:03;;;;;;;;;;;16.20;99.90;;;;;;5073610;28;19936;-67
2022/11/01 14:13:31;;;;;;;;;;;16.20;99.90;;;;;;5073490;28;19924;-67
2022/11/01 14:16:00;;;;;;;;;;;16.10;99.90;;;;;;5074155;28;20015;-68
2022/11/01 14:18:26;;;;;;;;;;;16.10;99.90;;;;;;5107252;28;20011;-67
2022/11/01 14:20:55;;;;;;;;;;;16.20;99.90;;;;;;5072772;28;20045;-69
2022/11/01 14:23:26;;;;;;;;;;;16.10;99.90;;;;;;5074030;28;19924;-67
2022/11/01 14:26:10;;;;;;;;;;;16.10;99.90;;;;;;5089590;28;19925;-68
2022/11/01 14:28:41;;;;;;;;;;;16.10;99.90;;;;;;5072880;28;19925;-69
2022/11/01 14:31:06;;;;;;;;;;;16.10;99.90;;;;;;5073466;28;20492;-68
2022/11/01 14:33:32;;;;;;;;;;;16.10;99.90;;;;;;5072928;28;19931;-68